sensor_id;sensor_type;location;lat;lon;timestamp;pressure;altitude;pressure_sealevel;temperature;humidity
6208;BME280;3137;51.550;7.060;2023-04-20T00:02:03;101604.22;;;7.36;41.74
6208;BME280;3137;51.550;7.060;2023-04-20T00:04:29;101605.81;;;7.40;41.53
6208;BME280;3137;51.550;7.060;2023-04-20T00:06:56;101606.69;;;7.40;41.12
6208;BME280;3137;51.550;7.060;2023-04-20T00:09:25;101588.84;;;7.42;41.06
6208;BME280;3137;51.550;7.060;2023-04-20T00:11:52;101583.34;;;7.45;41.32
6208;BME280;3137;51.550;7.060;2023-04-20T00:14:18;101576.41;;;7.41;41.28
6208;BME280;3137;51.550;7.060;2023-04-20T00:16:45;101576.41;;;7.41;41.57
6208;BME280;3137;51.550;7.060;2023-04-20T00:19:11;101570.19;;;7.42;42.17
6208;BME280;3137;51.550;7.060;2023-04-20T00:21:38;101566.81;;;7.37;42.31
6208;BME280;3137;51.550;7.060;2023-04-20T00:24:05;101572.38;;;7.33;42.25
6208;BME280;3137;51.550;7.060;2023-04-20T00:26:33;101560.78;;;7.34;41.52
6208;BME280;3137;51.550;7.060;2023-04-20T00:29:00;101555.91;;;7.23;41.55
6208;BME280;3137;51.550;7.060;2023-04-20T00:31:26;101556.88;;;7.22;41.64
6208;BME280;3137;51.550;7.060;2023-04-20T00:33:52;101550.47;;;7.26;41.33
6208;BME280;3137;51.550;7.060;2023-04-20T00:36:19;101549.72;;;7.22;41.82
6208;BME280;3137;51.550;7.060;2023-04-20T00:38:45;101550.59;;;7.23;41.71
6208;BME280;3137;51.550;7.060;2023-04-20T00:41:12;101543.75;;;7.17;41.49
6208;BME280;3137;51.550;7.060;2023-04-20T00:43:56;101538.41;;;7.17;42.08
6208;BME280;3137;51.550;7.060;2023-04-20T00:46:23;101526.63;;;7.23;41.40
6208;BME280;3137;51.550;7.060;2023-04-20T00:48:50;101524.94;;;7.20;41.23
6208;BME280;3137;51.550;7.060;2023-04-20T00:51:18;101528.72;;;7.16;42.36
6208;BME280;3137;51.550;7.060;2023-04-20T00:53:46;101513.19;;;7.26;41.08
6208;BME280;3137;51.550;7.060;2023-04-20T00:56:13;101507.06;;;7.24;42.36
6208;BME280;3137;51.550;7.060;2023-04-20T00:58:41;101507.09;;;7.22;43.20
6208;BME280;3137;51.550;7.060;2023-04-20T01:01:09;101508.19;;;7.18;43.13
6208;BME280;3137;51.550;7.060;2023-04-20T01:03:38;101491.34;;;7.18;42.31
6208;BME280;3137;51.550;7.060;2023-04-20T01:06:05;101486.75;;;7.21;42.40
6208;BME280;3137;51.550;7.060;2023-04-20T01:08:32;101479.75;;;7.19;41.95
6208;BME280;3137;51.550;7.060;2023-04-20T01:11:02;101478.59;;;7.24;42.40
6208;BME280;3137;51.550;7.060;2023-04-20T01:13:28;101477.75;;;7.24;43.03
6208;BME280;3137;51.550;7.060;2023-04-20T01:15:58;101481.91;;;7.30;42.51
6208;BME280;3137;51.550;7.060;2023-04-20T01:18:25;101476.94;;;7.22;43.34
6208;BME280;3137;51.550;7.060;2023-04-20T01:20:52;101472.03;;;7.13;43.37
6208;BME280;3137;51.550;7.060;2023-04-20T01:23:19;101470.38;;;7.10;43.68
6208;BME280;3137;51.550;7.060;2023-04-20T01:25:45;101468.44;;;7.14;43.90
6208;BME280;3137;51.550;7.060;2023-04-20T01:28:13;101470.22;;;7.13;43.94
6208;BME280;3137;51.550;7.060;2023-04-20T01:30:39;101471.13;;;7.14;44.34
6208;BME280;3137;51.550;7.060;2023-04-20T01:33:06;101463.13;;;7.14;44.94
6208;BME280;3137;51.550;7.060;2023-04-20T01:35:32;101449.28;;;7.24;44.67
6208;BME280;3137;51.550;7.060;2023-04-20T01:38:00;101443.31;;;7.19;46.02
6208;BME280;3137;51.550;7.060;2023-04-20T01:40:26;101446.13;;;7.16;45.64
6208;BME280;3137;51.550;7.060;2023-04-20T01:42:53;101427.84;;;7.28;45.14
6208;BME280;3137;51.550;7.060;2023-04-20T01:45:21;101425.16;;;7.28;45.60
6208;BME280;3137;51.550;7.060;2023-04-20T01:47:47;101420.00;;;7.24;45.43
6208;BME280;3137;51.550;7.060;2023-04-20T01:50:14;101420.00;;;7.24;45.36
6208;BME280;3137;51.550;7.060;2023-04-20T01:52:40;101412.75;;;7.28;45.94
6208;BME280;3137;51.550;7.060;2023-04-20T01:55:08;101414.28;;;7.32;46.11
6208;BME280;3137;51.550;7.060;2023-04-20T01:57:36;101404.97;;;7.23;45.96
6208;BME280;3137;51.550;7.060;2023-04-20T02:00:03;101402.34;;;7.22;47.05
6208;BME280;3137;51.550;7.060;2023-04-20T02:02:39;101401.28;;;7.26;46.85
6208;BME280;3137;51.550;7.060;2023-04-20T02:05:06;101395.97;;;7.26;46.17
6208;BME280;3137;51.550;7.060;2023-04-20T02:07:33;101389.81;;;7.24;46.75
6208;BME280;3137;51.550;7.060;2023-04-20T02:09:59;101390.84;;;7.21;46.84
6208;BME280;3137;51.550;7.060;2023-04-20T02:12:25;101391.75;;;7.20;47.16
6208;BME280;3137;51.550;7.060;2023-04-20T02:14:52;101385.50;;;7.21;46.57
6208;BME280;3137;51.550;7.060;2023-04-20T02:17:20;101384.34;;;7.27;46.38
6208;BME280;3137;51.550;7.060;2023-04-20T02:19:46;101384.56;;;7.22;46.60
6208;BME280;3137;51.550;7.060;2023-04-20T02:22:13;101382.06;;;7.19;47.23
6208;BME280;3137;51.550;7.060;2023-04-20T02:24:39;101379.03;;;7.27;46.39
6208;BME280;3137;51.550;7.060;2023-04-20T02:27:06;101380.59;;;7.31;47.19
6208;BME280;3137;51.550;7.060;2023-04-20T02:29:33;101375.34;;;7.30;47.03
6208;BME280;3137;51.550;7.060;2023-04-20T02:31:59;101379.66;;;7.32;47.24
6208;BME280;3137;51.550;7.060;2023-04-20T02:34:25;101370.09;;;7.28;47.42
6208;BME280;3137;51.550;7.060;2023-04-20T02:36:55;101376.44;;;7.26;47.57
6208;BME280;3137;51.550;7.060;2023-04-20T02:39:21;101368.47;;;7.26;48.19
6208;BME280;3137;51.550;7.060;2023-04-20T02:41:48;101367.56;;;7.25;48.99
6208;BME280;3137;51.550;7.060;2023-04-20T02:44:15;101363.25;;;7.22;48.95
6208;BME280;3137;51.550;7.060;2023-04-20T02:46:41;101365.06;;;7.22;49.05
6208;BME280;3137;51.550;7.060;2023-04-20T02:49:08;101358.72;;;7.24;49.30
6208;BME280;3137;51.550;7.060;2023-04-20T02:51:39;101357.22;;;7.19;49.44
6208;BME280;3137;51.550;7.060;2023-04-20T02:54:05;101354.47;;;7.20;49.79
6208;BME280;3137;51.550;7.060;2023-04-20T02:56:31;101356.44;;;7.17;50.29
6208;BME280;3137;51.550;7.060;2023-04-20T02:59:03;101356.38;;;7.18;50.88
6208;BME280;3137;51.550;7.060;2023-04-20T03:01:56;101350.47;;;7.12;51.02
6208;BME280;3137;51.550;7.060;2023-04-20T03:04:24;101354.63;;;7.17;51.23
6208;BME280;3137;51.550;7.060;2023-04-20T03:07:01;101344.69;;;7.21;51.45
6208;BME280;3137;51.550;7.060;2023-04-20T03:09:32;101338.47;;;7.20;51.51
6208;BME280;3137;51.550;7.060;2023-04-20T03:12:17;101337.78;;;7.17;52.44
6208;BME280;3137;51.550;7.060;2023-04-20T03:15:15;101338.41;;;7.22;53.21
6208;BME280;3137;51.550;7.060;2023-04-20T03:17:57;101333.81;;;7.26;53.05
6208;BME280;3137;51.550;7.060;2023-04-20T03:20:23;101334.81;;;7.23;54.77
6208;BME280;3137;51.550;7.060;2023-04-20T03:22:50;101324.25;;;7.21;54.92
6208;BME280;3137;51.550;7.060;2023-04-20T03:25:19;101329.25;;;7.28;55.61
6208;BME280;3137;51.550;7.060;2023-04-20T03:27:59;101327.59;;;7.25;56.05
6208;BME280;3137;51.550;7.060;2023-04-20T03:30:25;101324.09;;;7.24;56.23
6208;BME280;3137;51.550;7.060;2023-04-20T03:33:00;101324.81;;;7.28;56.28
6208;BME280;3137;51.550;7.060;2023-04-20T03:35:26;101322.78;;;7.33;56.86
6208;BME280;3137;51.550;7.060;2023-04-20T03:37:53;101322.34;;;7.42;56.71
6208;BME280;3137;51.550;7.060;2023-04-20T03:40:20;101318.03;;;7.40;56.92
6208;BME280;3137;51.550;7.060;2023-04-20T03:42:46;101317.47;;;7.33;57.82
6208;BME280;3137;51.550;7.060;2023-04-20T03:45:13;101317.47;;;7.33;57.11
6208;BME280;3137;51.550;7.060;2023-04-20T03:47:40;101321.03;;;7.32;57.67
6208;BME280;3137;51.550;7.060;2023-04-20T03:50:07;101316.59;;;7.33;57.66
6208;BME280;3137;51.550;7.060;2023-04-20T03:52:33;101320.59;;;7.41;56.75
6208;BME280;3137;51.550;7.060;2023-04-20T03:55:03;101308.13;;;7.42;57.25
6208;BME280;3137;51.550;7.060;2023-04-20T03:57:32;101303.03;;;7.37;57.47
6208;BME280;3137;51.550;7.060;2023-04-20T04:00:00;101305.69;;;7.37;57.22
6208;BME280;3137;51.550;7.060;2023-04-20T04:02:32;101309.53;;;7.32;57.53
6208;BME280;3137;51.550;7.060;2023-04-20T04:05:02;101298.50;;;7.39;57.33
6208;BME280;3137;51.550;7.060;2023-04-20T04:07:28;101293.53;;;7.32;56.92
6208;BME280;3137;51.550;7.060;2023-04-20T04:09:55;101295.19;;;7.34;57.22
6208;BME280;3137;51.550;7.060;2023-04-20T04:12:21;101286.41;;;7.32;57.55
6208;BME280;3137;51.550;7.060;2023-04-20T04:14:49;101290.72;;;7.35;57.14
6208;BME280;3137;51.550;7.060;2023-04-20T04:17:17;101291.09;;;7.27;57.54
6208;BME280;3137;51.550;7.060;2023-04-20T04:19:44;101281.41;;;7.26;57.51
6208;BME280;3137;51.550;7.060;2023-04-20T04:22:10;101285.63;;;7.30;58.07
6208;BME280;3137;51.550;7.060;2023-04-20T04:24:47;101280.53;;;7.26;58.44
6208;BME280;3137;51.550;7.060;2023-04-20T04:27:17;101286.84;;;7.23;58.59
6208;BME280;3137;51.550;7.060;2023-04-20T04:29:51;101289.38;;;7.26;58.21
6208;BME280;3137;51.550;7.060;2023-04-20T04:32:19;101292.34;;;7.20;58.56
6208;BME280;3137;51.550;7.060;2023-04-20T04:34:45;101291.41;;;7.21;59.12
6208;BME280;3137;51.550;7.060;2023-04-20T04:37:13;101292.06;;;7.26;59.29
6208;BME280;3137;51.550;7.060;2023-04-20T04:39:46;101295.09;;;7.18;59.84
6208;BME280;3137;51.550;7.060;2023-04-20T04:42:18;101295.53;;;7.09;59.74
6208;BME280;3137;51.550;7.060;2023-04-20T04:44:45;101296.47;;;7.08;59.96
6208;BME280;3137;51.550;7.060;2023-04-20T04:47:18;101297.03;;;7.15;59.83
6208;BME280;3137;51.550;7.060;2023-04-20T04:49:47;101296.41;;;7.10;60.23
6208;BME280;3137;51.550;7.060;2023-04-20T04:52:13;101296.63;;;7.05;60.75
6208;BME280;3137;51.550;7.060;2023-04-20T04:54:40;101301.78;;;7.08;61.16
6208;BME280;3137;51.550;7.060;2023-04-20T04:57:06;101302.94;;;7.02;61.48
6208;BME280;3137;51.550;7.060;2023-04-20T04:59:33;101304.44;;;7.08;61.73
6208;BME280;3137;51.550;7.060;2023-04-20T05:01:59;101297.31;;;7.09;61.61
6208;BME280;3137;51.550;7.060;2023-04-20T05:04:26;101299.72;;;6.96;62.03
6208;BME280;3137;51.550;7.060;2023-04-20T05:06:52;101301.88;;;7.07;62.55
6208;BME280;3137;51.550;7.060;2023-04-20T05:09:18;101303.53;;;7.09;62.34
6208;BME280;3137;51.550;7.060;2023-04-20T05:11:45;101301.22;;;7.01;62.38
6208;BME280;3137;51.550;7.060;2023-04-20T05:14:12;101294.75;;;7.07;62.98
6208;BME280;3137;51.550;7.060;2023-04-20T05:16:38;101301.16;;;7.03;63.45
6208;BME280;3137;51.550;7.060;2023-04-20T05:19:04;101304.41;;;6.91;63.62
6208;BME280;3137;51.550;7.060;2023-04-20T05:21:31;101303.00;;;6.82;64.04
6208;BME280;3137;51.550;7.060;2023-04-20T05:23:58;101306.84;;;6.76;64.64
6208;BME280;3137;51.550;7.060;2023-04-20T05:26:24;101299.91;;;6.72;64.72
6208;BME280;3137;51.550;7.060;2023-04-20T05:28:50;101309.00;;;6.68;65.23
6208;BME280;3137;51.550;7.060;2023-04-20T05:31:17;101304.59;;;6.67;65.77
6208;BME280;3137;51.550;7.060;2023-04-20T05:33:43;101303.47;;;6.73;65.79
6208;BME280;3137;51.550;7.060;2023-04-20T05:36:10;101307.06;;;6.72;65.86
6208;BME280;3137;51.550;7.060;2023-04-20T05:38:36;101302.09;;;6.64;66.44
6208;BME280;3137;51.550;7.060;2023-04-20T05:41:03;101306.19;;;6.71;67.02
6208;BME280;3137;51.550;7.060;2023-04-20T05:43:29;101308.66;;;6.76;66.95
6208;BME280;3137;51.550;7.060;2023-04-20T05:45:56;101304.91;;;6.80;67.05
6208;BME280;3137;51.550;7.060;2023-04-20T05:48:22;101299.72;;;6.77;66.98
6208;BME280;3137;51.550;7.060;2023-04-20T05:50:49;101306.84;;;6.76;66.97
6208;BME280;3137;51.550;7.060;2023-04-20T05:53:15;101310.16;;;6.81;67.28
6208;BME280;3137;51.550;7.060;2023-04-20T05:55:42;101309.34;;;6.79;67.34
6208;BME280;3137;51.550;7.060;2023-04-20T05:58:08;101310.44;;;6.75;67.31
6208;BME280;3137;51.550;7.060;2023-04-20T06:00:34;101306.13;;;6.73;67.44
6208;BME280;3137;51.550;7.060;2023-04-20T06:03:02;101308.72;;;6.74;67.75
6208;BME280;3137;51.550;7.060;2023-04-20T06:05:28;101309.28;;;6.81;67.77
6208;BME280;3137;51.550;7.060;2023-04-20T06:07:55;101317.50;;;6.76;68.04
6208;BME280;3137;51.550;7.060;2023-04-20T06:10:21;101312.31;;;6.73;68.70
6208;BME280;3137;51.550;7.060;2023-04-20T06:12:48;101311.50;;;6.71;69.66
6208;BME280;3137;51.550;7.060;2023-04-20T06:15:15;101312.00;;;6.60;69.99
6208;BME280;3137;51.550;7.060;2023-04-20T06:17:41;101317.91;;;6.67;70.49
6208;BME280;3137;51.550;7.060;2023-04-20T06:20:09;101316.56;;;6.58;70.74
6208;BME280;3137;51.550;7.060;2023-04-20T06:22:43;101320.53;;;6.48;71.14
6208;BME280;3137;51.550;7.060;2023-04-20T06:25:10;101332.47;;;6.39;71.91
6208;BME280;3137;51.550;7.060;2023-04-20T06:27:38;101328.81;;;6.22;73.17
6208;BME280;3137;51.550;7.060;2023-04-20T06:30:05;101323.91;;;6.12;74.59
6208;BME280;3137;51.550;7.060;2023-04-20T06:32:31;101329.38;;;6.09;75.60
6208;BME280;3137;51.550;7.060;2023-04-20T06:34:58;101322.63;;;6.01;76.21
6208;BME280;3137;51.550;7.060;2023-04-20T06:37:24;101326.75;;;6.08;76.57
6208;BME280;3137;51.550;7.060;2023-04-20T06:39:54;101316.78;;;6.13;75.89
6208;BME280;3137;51.550;7.060;2023-04-20T06:42:21;101318.38;;;6.17;76.33
6208;BME280;3137;51.550;7.060;2023-04-20T06:44:48;101313.22;;;6.14;76.58
6208;BME280;3137;51.550;7.060;2023-04-20T06:47:14;101316.66;;;6.16;76.56
6208;BME280;3137;51.550;7.060;2023-04-20T06:49:41;101315.22;;;6.09;77.07
6208;BME280;3137;51.550;7.060;2023-04-20T06:52:08;101317.88;;;6.09;77.04
6208;BME280;3137;51.550;7.060;2023-04-20T06:54:34;101313.88;;;6.19;77.35
6208;BME280;3137;51.550;7.060;2023-04-20T06:57:01;101312.41;;;6.12;77.47
6208;BME280;3137;51.550;7.060;2023-04-20T06:59:27;101316.00;;;6.11;76.79
6208;BME280;3137;51.550;7.060;2023-04-20T07:01:53;101307.38;;;6.06;76.95
6208;BME280;3137;51.550;7.060;2023-04-20T07:04:20;101311.56;;;6.11;76.53
6208;BME280;3137;51.550;7.060;2023-04-20T07:06:46;101306.69;;;6.21;76.28
6208;BME280;3137;51.550;7.060;2023-04-20T07:09:16;101302.16;;;6.23;75.66
6208;BME280;3137;51.550;7.060;2023-04-20T07:11:44;101310.06;;;6.25;75.08
6208;BME280;3137;51.550;7.060;2023-04-20T07:14:11;101308.19;;;6.27;74.95
6208;BME280;3137;51.550;7.060;2023-04-20T07:16:37;101303.22;;;6.39;74.70
6208;BME280;3137;51.550;7.060;2023-04-20T07:19:04;101300.13;;;6.49;74.04
6208;BME280;3137;51.550;7.060;2023-04-20T07:21:30;101299.03;;;6.53;73.68
6208;BME280;3137;51.550;7.060;2023-04-20T07:23:57;101308.41;;;6.62;73.87
6208;BME280;3137;51.550;7.060;2023-04-20T07:26:24;101310.50;;;6.74;73.21
6208;BME280;3137;51.550;7.060;2023-04-20T07:28:51;101308.34;;;6.82;72.96
6208;BME280;3137;51.550;7.060;2023-04-20T07:31:17;101303.59;;;6.89;71.84
6208;BME280;3137;51.550;7.060;2023-04-20T07:33:43;101301.72;;;6.91;71.82
6208;BME280;3137;51.550;7.060;2023-04-20T07:36:10;101303.75;;;6.86;71.70
6208;BME280;3137;51.550;7.060;2023-04-20T07:38:36;101294.69;;;6.90;71.77
6208;BME280;3137;51.550;7.060;2023-04-20T07:41:03;101296.41;;;6.91;71.29
6208;BME280;3137;51.550;7.060;2023-04-20T07:43:29;101291.03;;;6.92;70.74
6208;BME280;3137;51.550;7.060;2023-04-20T07:45:55;101294.16;;;6.81;71.09
6208;BME280;3137;51.550;7.060;2023-04-20T07:48:22;101303.31;;;6.95;71.68
6208;BME280;3137;51.550;7.060;2023-04-20T07:50:48;101292.72;;;6.93;71.37
6208;BME280;3137;51.550;7.060;2023-04-20T07:53:14;101295.97;;;7.00;71.07
6208;BME280;3137;51.550;7.060;2023-04-20T07:55:41;101297.00;;;6.97;70.75
6208;BME280;3137;51.550;7.060;2023-04-20T07:58:07;101299.28;;;7.05;71.13
6208;BME280;3137;51.550;7.060;2023-04-20T08:00:34;101290.75;;;7.16;70.58
6208;BME280;3137;51.550;7.060;2023-04-20T08:03:00;101291.31;;;7.22;69.59
6208;BME280;3137;51.550;7.060;2023-04-20T08:05:27;101289.44;;;7.24;70.24
6208;BME280;3137;51.550;7.060;2023-04-20T08:07:54;101289.00;;;7.34;69.36
6208;BME280;3137;51.550;7.060;2023-04-20T08:10:20;101285.50;;;7.33;68.43
6208;BME280;3137;51.550;7.060;2023-04-20T08:12:46;101284.13;;;7.24;69.09
6208;BME280;3137;51.550;7.060;2023-04-20T08:15:17;101286.00;;;7.22;69.01
6208;BME280;3137;51.550;7.060;2023-04-20T08:17:44;101277.38;;;7.17;69.12
6208;BME280;3137;51.550;7.060;2023-04-20T08:20:10;101280.22;;;7.32;69.15
6208;BME280;3137;51.550;7.060;2023-04-20T08:22:38;101269.31;;;7.19;69.39
6208;BME280;3137;51.550;7.060;2023-04-20T08:25:04;101274.88;;;7.14;69.75
6208;BME280;3137;51.550;7.060;2023-04-20T08:27:31;101270.88;;;7.23;69.07
6208;BME280;3137;51.550;7.060;2023-04-20T08:29:57;101271.66;;;7.25;69.18
6208;BME280;3137;51.550;7.060;2023-04-20T08:32:24;101262.13;;;7.38;69.03
6208;BME280;3137;51.550;7.060;2023-04-20T08:34:52;101267.56;;;7.18;69.32
6208;BME280;3137;51.550;7.060;2023-04-20T08:37:19;101270.25;;;7.18;69.76
6208;BME280;3137;51.550;7.060;2023-04-20T08:39:45;101266.34;;;7.25;70.16
6208;BME280;3137;51.550;7.060;2023-04-20T08:42:12;101267.91;;;7.29;69.30
6208;BME280;3137;51.550;7.060;2023-04-20T08:44:38;101265.81;;;7.18;69.86
6208;BME280;3137;51.550;7.060;2023-04-20T08:47:05;101263.53;;;7.28;69.38
6208;BME280;3137;51.550;7.060;2023-04-20T08:49:31;101267.75;;;7.32;68.96
6208;BME280;3137;51.550;7.060;2023-04-20T08:51:58;101260.09;;;7.26;69.63
6208;BME280;3137;51.550;7.060;2023-04-20T08:54:24;101262.81;;;7.24;69.82
6208;BME280;3137;51.550;7.060;2023-04-20T08:56:51;101260.22;;;7.23;69.23
6208;BME280;3137;51.550;7.060;2023-04-20T08:59:17;101252.22;;;7.23;69.50
6208;BME280;3137;51.550;7.060;2023-04-20T09:01:44;101264.22;;;7.14;69.82
6208;BME280;3137;51.550;7.060;2023-04-20T09:04:15;101257.81;;;7.18;69.55
6208;BME280;3137;51.550;7.060;2023-04-20T09:06:47;101257.31;;;7.28;69.14
6208;BME280;3137;51.550;7.060;2023-04-20T09:09:16;101261.00;;;7.25;69.21
6208;BME280;3137;51.550;7.060;2023-04-20T09:11:43;101261.72;;;7.29;70.47
6208;BME280;3137;51.550;7.060;2023-04-20T09:14:12;101263.69;;;7.06;71.76
6208;BME280;3137;51.550;7.060;2023-04-20T09:16:52;101261.78;;;6.91;74.66
6208;BME280;3137;51.550;7.060;2023-04-20T09:19:22;101261.31;;;6.82;76.04
6208;BME280;3137;51.550;7.060;2023-04-20T09:21:51;101266.13;;;6.74;76.70
6208;BME280;3137;51.550;7.060;2023-04-20T09:24:19;101270.50;;;6.56;77.23
6208;BME280;3137;51.550;7.060;2023-04-20T09:26:46;101268.66;;;6.58;77.15
6208;BME280;3137;51.550;7.060;2023-04-20T09:29:20;101267.06;;;6.54;76.66
6208;BME280;3137;51.550;7.060;2023-04-20T09:31:48;101268.41;;;6.63;77.50
6208;BME280;3137;51.550;7.060;2023-04-20T09:34:15;101271.88;;;6.84;76.72
6208;BME280;3137;51.550;7.060;2023-04-20T09:36:45;101278.03;;;7.03;75.58
6208;BME280;3137;51.550;7.060;2023-04-20T09:39:13;101268.59;;;7.15;74.71
6208;BME280;3137;51.550;7.060;2023-04-20T09:41:43;101281.00;;;7.16;73.56
6208;BME280;3137;51.550;7.060;2023-04-20T09:44:11;101270.88;;;7.23;71.94
6208;BME280;3137;51.550;7.060;2023-04-20T09:46:39;101271.53;;;7.28;71.81
6208;BME280;3137;51.550;7.060;2023-04-20T09:49:08;101276.16;;;7.42;72.84
6208;BME280;3137;51.550;7.060;2023-04-20T09:51:36;101264.03;;;7.54;71.31
6208;BME280;3137;51.550;7.060;2023-04-20T09:54:04;101267.97;;;7.64;71.81
6208;BME280;3137;51.550;7.060;2023-04-20T09:56:32;101262.06;;;7.75;70.58
6208;BME280;3137;51.550;7.060;2023-04-20T09:59:00;101266.22;;;7.80;70.07
6208;BME280;3137;51.550;7.060;2023-04-20T10:01:31;101258.34;;;7.95;71.23
6208;BME280;3137;51.550;7.060;2023-04-20T10:04:01;101256.41;;;7.98;70.37
6208;BME280;3137;51.550;7.060;2023-04-20T10:06:30;101250.31;;;8.29;70.37
6208;BME280;3137;51.550;7.060;2023-04-20T10:09:00;101248.19;;;8.36;69.35
6208;BME280;3137;51.550;7.060;2023-04-20T10:11:29;101247.78;;;8.44;69.03
6208;BME280;3137;51.550;7.060;2023-04-20T10:14:23;101242.97;;;8.17;68.41
6208;BME280;3137;51.550;7.060;2023-04-20T10:17:01;101243.53;;;8.06;69.25
6208;BME280;3137;51.550;7.060;2023-04-20T10:19:42;101239.19;;;8.21;70.54
6208;BME280;3137;51.550;7.060;2023-04-20T10:22:11;101241.59;;;8.26;69.82
6208;BME280;3137;51.550;7.060;2023-04-20T10:24:38;101238.25;;;8.22;69.18
6208;BME280;3137;51.550;7.060;2023-04-20T10:27:19;101236.25;;;8.26;67.89
6208;BME280;3137;51.550;7.060;2023-04-20T10:29:45;101238.00;;;8.27;67.10
6208;BME280;3137;51.550;7.060;2023-04-20T10:32:26;101234.38;;;8.28;67.59
6208;BME280;3137;51.550;7.060;2023-04-20T10:35:04;101233.66;;;8.42;67.28
6208;BME280;3137;51.550;7.060;2023-04-20T10:37:32;101231.00;;;8.58;66.94
6208;BME280;3137;51.550;7.060;2023-04-20T10:39:59;101230.50;;;8.51;67.17
6208;BME280;3137;51.550;7.060;2023-04-20T10:42:26;101225.25;;;8.65;66.62
6208;BME280;3137;51.550;7.060;2023-04-20T10:44:54;101227.72;;;8.68;67.15
6208;BME280;3137;51.550;7.060;2023-04-20T10:47:28;101229.28;;;8.57;67.77
6208;BME280;3137;51.550;7.060;2023-04-20T10:50:12;101230.91;;;8.43;68.03
6208;BME280;3137;51.550;7.060;2023-04-20T10:52:40;101233.78;;;8.72;67.78
6208;BME280;3137;51.550;7.060;2023-04-20T10:55:21;101231.53;;;8.80;66.05
6208;BME280;3137;51.550;7.060;2023-04-20T10:57:49;101233.09;;;8.84;64.97
6208;BME280;3137;51.550;7.060;2023-04-20T11:00:20;101232.56;;;8.78;64.20
6208;BME280;3137;51.550;7.060;2023-04-20T11:02:54;101227.56;;;8.87;63.18
6208;BME280;3137;51.550;7.060;2023-04-20T11:05:26;101234.63;;;8.72;63.49
6208;BME280;3137;51.550;7.060;2023-04-20T11:07:54;101219.28;;;8.76;64.18
6208;BME280;3137;51.550;7.060;2023-04-20T11:10:23;101224.88;;;8.87;64.45
6208;BME280;3137;51.550;7.060;2023-04-20T11:12:50;101208.69;;;8.90;64.17
6208;BME280;3137;51.550;7.060;2023-04-20T11:15:17;101213.09;;;8.91;62.72
6208;BME280;3137;51.550;7.060;2023-04-20T11:17:43;101222.94;;;8.91;61.79
6208;BME280;3137;51.550;7.060;2023-04-20T11:20:13;101218.44;;;8.91;62.50
6208;BME280;3137;51.550;7.060;2023-04-20T11:22:43;101211.28;;;9.08;60.91
6208;BME280;3137;51.550;7.060;2023-04-20T11:25:10;101196.94;;;9.09;61.41
6208;BME280;3137;51.550;7.060;2023-04-20T11:27:38;101200.22;;;9.44;62.02
6208;BME280;3137;51.550;7.060;2023-04-20T11:30:07;101196.47;;;9.77;61.00
6208;BME280;3137;51.550;7.060;2023-04-20T11:32:35;101190.53;;;9.86;58.70
6208;BME280;3137;51.550;7.060;2023-04-20T11:35:04;101183.28;;;9.74;57.32
6208;BME280;3137;51.550;7.060;2023-04-20T11:37:53;101182.81;;;9.82;58.62
6208;BME280;3137;51.550;7.060;2023-04-20T11:40:20;101180.53;;;10.04;59.03
6208;BME280;3137;51.550;7.060;2023-04-20T11:42:46;101183.13;;;10.06;58.27
6208;BME280;3137;51.550;7.060;2023-04-20T11:45:12;101186.94;;;10.16;58.42
6208;BME280;3137;51.550;7.060;2023-04-20T11:47:39;101192.56;;;10.11;58.41
6208;BME280;3137;51.550;7.060;2023-04-20T11:50:06;101192.09;;;10.05;56.99
6208;BME280;3137;51.550;7.060;2023-04-20T11:52:33;101184.34;;;10.14;57.88
6208;BME280;3137;51.550;7.060;2023-04-20T11:55:00;101190.50;;;10.31;56.39
6208;BME280;3137;51.550;7.060;2023-04-20T11:57:26;101185.91;;;10.74;55.09
6208;BME280;3137;51.550;7.060;2023-04-20T11:59:53;101182.91;;;10.52;54.39
6208;BME280;3137;51.550;7.060;2023-04-20T12:02:19;101185.44;;;10.68;54.25
6208;BME280;3137;51.550;7.060;2023-04-20T12:04:46;101172.91;;;10.82;54.63
6208;BME280;3137;51.550;7.060;2023-04-20T12:07:13;101181.31;;;10.76;55.17
6208;BME280;3137;51.550;7.060;2023-04-20T12:09:39;101185.44;;;10.68;54.21
6208;BME280;3137;51.550;7.060;2023-04-20T12:12:06;101188.66;;;10.31;55.20
6208;BME280;3137;51.550;7.060;2023-04-20T12:14:33;101182.25;;;10.19;56.51
6208;BME280;3137;51.550;7.060;2023-04-20T12:17:01;101186.16;;;10.14;56.13
6208;BME280;3137;51.550;7.060;2023-04-20T12:19:27;101187.88;;;10.15;56.12
6208;BME280;3137;51.550;7.060;2023-04-20T12:21:54;101189.44;;;10.33;56.51
6208;BME280;3137;51.550;7.060;2023-04-20T12:24:21;101185.44;;;10.68;55.33
6208;BME280;3137;51.550;7.060;2023-04-20T12:26:48;101178.69;;;10.89;55.93
6208;BME280;3137;51.550;7.060;2023-04-20T12:29:14;101190.59;;;10.85;53.55
6208;BME280;3137;51.550;7.060;2023-04-20T12:31:41;101176.97;;;10.88;53.58
6208;BME280;3137;51.550;7.060;2023-04-20T12:34:08;101184.69;;;10.80;53.71
6208;BME280;3137;51.550;7.060;2023-04-20T12:36:34;101182.09;;;10.78;53.09
6208;BME280;3137;51.550;7.060;2023-04-20T12:39:01;101187.47;;;10.91;51.26
6208;BME280;3137;51.550;7.060;2023-04-20T12:41:29;101179.69;;;10.74;51.36
6208;BME280;3137;51.550;7.060;2023-04-20T12:43:55;101173.53;;;10.59;53.10
6208;BME280;3137;51.550;7.060;2023-04-20T12:46:22;101175.28;;;10.87;52.63
6208;BME280;3137;51.550;7.060;2023-04-20T12:48:48;101172.34;;;11.17;50.56
6208;BME280;3137;51.550;7.060;2023-04-20T12:51:14;101172.47;;;11.16;49.78
6208;BME280;3137;51.550;7.060;2023-04-20T12:53:41;101179.78;;;11.26;50.58
6208;BME280;3137;51.550;7.060;2023-04-20T12:56:07;101170.44;;;11.32;50.11
6208;BME280;3137;51.550;7.060;2023-04-20T12:58:34;101174.50;;;11.25;50.48
6208;BME280;3137;51.550;7.060;2023-04-20T13:01:00;101176.19;;;11.13;50.82
6208;BME280;3137;51.550;7.060;2023-04-20T13:03:27;101182.19;;;11.04;50.03
6208;BME280;3137;51.550;7.060;2023-04-20T13:05:53;101182.78;;;11.22;51.09
6208;BME280;3137;51.550;7.060;2023-04-20T13:08:20;101184.41;;;10.97;50.09
6208;BME280;3137;51.550;7.060;2023-04-20T13:10:46;101178.13;;;10.84;50.80
6208;BME280;3137;51.550;7.060;2023-04-20T13:13:13;101175.41;;;10.98;50.34
6208;BME280;3137;51.550;7.060;2023-04-20T13:15:39;101181.41;;;11.29;51.17
6208;BME280;3137;51.550;7.060;2023-04-20T13:18:06;101172.28;;;11.44;49.30
6208;BME280;3137;51.550;7.060;2023-04-20T13:20:34;101178.00;;;11.53;49.37
6208;BME280;3137;51.550;7.060;2023-04-20T13:23:02;101173.41;;;11.67;50.11
6208;BME280;3137;51.550;7.060;2023-04-20T13:25:31;101179.50;;;11.44;49.38